Time;durP1;ratioP1;P1;durP2;ratioP2;P2;SDS_P1;SDS_P2;PMS_P1;PMS_P2;Temp;Humidity;BMP_temperature;BMP_pressure;BME280_temperature;BME280_humidity;BME280_pressure;Samples;Min_cycle;Max_cycle;Signal;HPM_P1;HPM_P2
2022/12/01 00:01:43;;;;;;;;;;;;;;;;;;5026218;28;19948;-65
2022/12/01 00:04:11;;;;;;;;;;;;;;;;;;5026510;28;20344;-64
2022/12/01 00:06:36;;;;;;;;;;;;;;;;;;5025034;28;20016;-65
2022/12/01 00:11:48;;;;;;;;;;;;;;;;;;5028736;28;20287;-63
2022/12/01 00:14:15;;;;;;;;;;;;;;;;;;5024535;28;19921;-64
2022/12/01 00:16:43;;;;;;;;;;;;;;;;;;5040073;28;19935;-64
2022/12/01 00:19:09;;;;;;;;;;;;;;;;;;5029204;28;19920;-64
2022/12/01 00:21:37;;;;;;;;;;;;;;;;;;5017209;28;20013;-64
2022/12/01 00:24:02;;;;;;;;;;;;;;;;;;5024728;28;20364;-64
2022/12/01 00:26:28;;;;;;;;;;;;;;;;;;5007787;28;19923;-64
2022/12/01 00:28:53;;;;;;;;;;;;;;;;;;5014392;28;19925;-64
2022/12/01 00:31:19;;;;;;;;;;;;;;;;;;5026914;28;19982;-64
2022/12/01 00:33:53;;;;;;;;;;;;;;;;;;5025300;28;20362;-64
2022/12/01 00:36:19;;;;;;;;;;;;;;;;;;5027231;28;19921;-64
2022/12/01 00:38:44;;;;;;;;;;;;;;;;;;5025423;28;20504;-65
2022/12/01 00:41:09;;;;;;;;;;;;;;;;;;5040563;28;20320;-65
2022/12/01 00:46:51;;;;;;;;;;;;;;;;;;5024436;28;21645;-65
2022/12/01 00:49:22;;;;;;;;;;;;;;;;;;5040263;28;19921;-65
2022/12/01 00:51:47;;;;;;;;;;;;;;;;;;5026837;28;19974;-65
2022/12/01 00:54:12;;;;;;;;;;;;;;;;;;5027070;28;20350;-65
2022/12/01 00:56:38;;;;;;;;;;;;;;;;;;5027311;28;19920;-65
2022/12/01 00:59:05;;;;;;;;;;;;;;;;;;5027467;28;19925;-65
2022/12/01 01:01:31;;;;;;;;;;;;;;;;;;5028582;28;19931;-64
2022/12/01 01:03:56;;;;;;;;;;;;;;;;;;5024614;28;19925;-65
2022/12/01 01:06:22;;;;;;;;;;;;;;;;;;5277743;23;19940;-91
2022/12/01 01:09:03;;;;;;;;;;;;;;;;;;5000807;28;19921;-90
2022/12/01 01:11:30;;;;;;;;;;;;;;;;;;4997505;28;20366;-92
2022/12/01 01:13:56;;;;;;;;;;;;;;;;;;4978631;28;19953;-91
2022/12/01 01:16:22;;;;;;;;;;;;;;;;;;5088130;28;19942;-92
2022/12/01 01:18:47;;;;;;;;;;;;;;;;;;4993501;28;19921;-94
2022/12/01 01:21:12;;;;;;;;;;;;;;;;;;5059253;28;19914;-92
2022/12/01 01:23:38;;;;;;;;;;;;;;;;;;5063614;28;19910;-93
2022/12/01 01:26:03;;;;;;;;;;;;;;;;;;5064435;28;20343;-92
2022/12/01 01:28:29;;;;;;;;;;;;;;;;;;5000217;28;20006;-93
2022/12/01 01:30:54;;;;;;;;;;;;;;;;;;5012756;28;20008;-91
2022/12/01 01:33:29;;;;;;;;;;;;;;;;;;5008364;28;20285;-91
2022/12/01 01:36:03;;;;;;;;;;;;;;;;;;5015452;28;19929;-91
2022/12/01 01:38:31;;;;;;;;;;;;;;;;;;4991509;28;19973;-91
2022/12/01 01:41:08;;;;;;;;;;;;;;;;;;5007224;28;19960;-91
2022/12/01 01:43:33;;;;;;;;;;;;;;;;;;4973028;28;20242;-91
2022/12/01 01:45:59;;;;;;;;;;;;;;;;;;5009382;28;20483;-92
2022/12/01 01:48:25;;;;;;;;;;;;;;;;;;4992872;28;19914;-91
2022/12/01 01:50:57;;;;;;;;;;;;;;;;;;4991247;28;19964;-91
2022/12/01 01:53:25;;;;;;;;;;;;;;;;;;4996710;28;19930;-91
2022/12/01 01:56:13;;;;;;;;;;;;;;;;;;4994967;28;20547;-89
2022/12/01 01:58:39;;;;;;;;;;;;;;;;;;4992536;28;19945;-91
2022/12/01 02:01:04;;;;;;;;;;;;;;;;;;4976801;28;20565;-90
2022/12/01 02:03:32;;;;;;;;;;;;;;;;;;4995649;28;19940;-92
2022/12/01 02:06:03;;;;;;;;;;;;;;;;;;4998311;28;19953;-92
2022/12/01 02:08:29;;;;;;;;;;;;;;;;;;4982732;28;20406;-93
2022/12/01 02:10:57;;;;;;;;;;;;;;;;;;4984170;28;19925;-89
2022/12/01 02:13:26;;;;;;;;;;;;;;;;;;5004331;28;22743;-90
2022/12/01 02:15:54;;;;;;;;;;;;;;;;;;5091276;28;19922;-90
2022/12/01 02:18:20;;;;;;;;;;;;;;;;;;4997234;28;20039;-88
2022/12/01 02:20:47;;;;;;;;;;;;;;;;;;5092541;28;19918;-91
2022/12/01 02:23:16;;;;;;;;;;;;;;;;;;5026645;28;20050;-91
2022/12/01 02:25:41;;;;;;;;;;;;;;;;;;5006931;28;19914;-91
2022/12/01 02:28:07;;;;;;;;;;;;;;;;;;5007279;28;19921;-91
2022/12/01 02:30:35;;;;;;;;;;;;;;;;;;5009068;28;20002;-91
2022/12/01 02:33:01;;;;;;;;;;;;;;;;;;5015650;28;19925;-90
2022/12/01 02:35:36;;;;;;;;;;;;;;;;;;5009198;28;19922;-89
2022/12/01 02:38:01;;;;;;;;;;;;;;;;;;5005837;28;19910;-90
2022/12/01 02:40:27;;;;;;;;;;;;;;;;;;4998483;28;19932;-89
2022/12/01 02:42:58;;;;;;;;;;;;;;;;;;5098010;28;20506;-91
2022/12/01 02:45:30;;;;;;;;;;;;;;;;;;5024690;28;19939;-90
2022/12/01 02:47:56;;;;;;;;;;;;;;;;;;5000529;28;19914;-93
2022/12/01 02:50:32;;;;;;;;;;;;;;;;;;5001397;28;20208;-93
2022/12/01 02:53:02;;;;;;;;;;;;;;;;;;5009153;28;19914;-91
2022/12/01 02:55:29;;;;;;;;;;;;;;;;;;5020560;28;19949;-89
2022/12/01 02:58:09;;;;;;;;;;;;;;;;;;5061544;28;20354;-91
2022/12/01 03:00:35;;;;;;;;;;;;;;;;;;5061298;28;19988;-91
2022/12/01 03:03:15;;;;;;;;;;;;;;;;;;5046477;28;19991;-91
2022/12/01 03:05:41;;;;;;;;;;;;;;;;;;5092789;28;19939;-92
2022/12/01 03:08:12;;;;;;;;;;;;;;;;;;5067736;28;19916;-92
2022/12/01 03:10:41;;;;;;;;;;;;;;;;;;5078109;28;19916;-93
2022/12/01 03:13:11;;;;;;;;;;;;;;;;;;5072550;28;19920;-92
2022/12/01 03:15:37;;;;;;;;;;;;;;;;;;5071864;28;20315;-90
2022/12/01 03:18:05;;;;;;;;;;;;;;;;;;5054931;28;19912;-90
2022/12/01 03:20:33;;;;;;;;;;;;;;;;;;5054814;28;19982;-90
2022/12/01 03:22:59;;;;;;;;;;;;;;;;;;5039475;28;20412;-92
2022/12/01 03:25:37;;;;;;;;;;;;;;;;;;5071882;28;19962;-89
2022/12/01 03:28:04;;;;;;;;;;;;;;;;;;5071949;28;19920;-92
2022/12/01 03:30:32;;;;;;;;;;;;;;;;;;5054947;28;19939;-92
2022/12/01 03:33:07;;;;;;;;;;;;;;;;;;5037998;28;19912;-90
2022/12/01 03:35:34;;;;;;;;;;;;;;;;;;5038450;28;19920;-94
2022/12/01 03:37:59;;;;;;;;;;;;;;;;;;5071211;28;19923;-91
2022/12/01 03:40:31;;;;;;;;;;;;;;;;;;5037917;28;19920;-91
2022/12/01 03:43:10;;;;;;;;;;;;;;;;;;4968487;28;19992;-94
2022/12/01 03:45:38;;;;;;;;;;;;;;;;;;4974406;28;19936;-91
2022/12/01 03:48:27;;;;;;;;;;;;;;;;;;5042441;28;19917;-92
2022/12/01 03:50:55;;;;;;;;;;;;;;;;;;4970992;28;19926;-90
2022/12/01 03:53:21;;;;;;;;;;;;;;;;;;4972618;28;19918;-91
2022/12/01 03:55:48;;;;;;;;;;;;;;;;;;5072544;28;19939;-90
2022/12/01 03:58:16;;;;;;;;;;;;;;;;;;5057387;28;20019;-91
2022/12/01 04:00:42;;;;;;;;;;;;;;;;;;5054565;28;19912;-91
2022/12/01 04:03:07;;;;;;;;;;;;;;;;;;5045461;28;20066;-92
2022/12/01 04:05:52;;;;;;;;;;;;;;;;;;5069929;28;19916;-89
2022/12/01 04:08:20;;;;;;;;;;;;;;;;;;5060729;28;19974;-91
2022/12/01 04:10:49;;;;;;;;;;;;;;;;;;5059009;28;19916;-90
2022/12/01 04:13:21;;;;;;;;;;;;;;;;;;5058136;28;19912;-89
2022/12/01 04:15:46;;;;;;;;;;;;;;;;;;5057974;28;19919;-89
2022/12/01 04:18:15;;;;;;;;;;;;;;;;;;5093677;28;19920;-89
2022/12/01 04:20:42;;;;;;;;;;;;;;;;;;5074015;28;19913;-90
2022/12/01 04:23:07;;;;;;;;;;;;;;;;;;5057774;28;19930;-89
2022/12/01 04:25:32;;;;;;;;;;;;;;;;;;5074148;28;19921;-89
2022/12/01 04:27:59;;;;;;;;;;;;;;;;;;5092530;28;19925;-91
2022/12/01 04:30:27;;;;;;;;;;;;;;;;;;5055915;28;19924;-91
2022/12/01 04:32:55;;;;;;;;;;;;;;;;;;5036277;28;19916;-91
2022/12/01 04:35:21;;;;;;;;;;;;;;;;;;5038289;28;19912;-93
2022/12/01 04:37:47;;;;;;;;;;;;;;;;;;5037437;28;20035;-91
2022/12/01 04:40:14;;;;;;;;;;;;;;;;;;4990698;28;19922;-90
2022/12/01 04:42:40;;;;;;;;;;;;;;;;;;4964734;28;19922;-91
2022/12/01 04:45:06;;;;;;;;;;;;;;;;;;4938748;28;19945;-92
2022/12/01 04:47:31;;;;;;;;;;;;;;;;;;4945292;28;19911;-89
2022/12/01 04:49:57;;;;;;;;;;;;;;;;;;4955014;28;19937;-91
2022/12/01 04:52:23;;;;;;;;;;;;;;;;;;4950954;28;20519;-90
2022/12/01 04:54:56;;;;;;;;;;;;;;;;;;4950448;28;19948;-93
2022/12/01 04:57:30;;;;;;;;;;;;;;;;;;4952568;28;19927;-91
2022/12/01 04:59:56;;;;;;;;;;;;;;;;;;4948702;28;20555;-92
2022/12/01 05:02:22;;;;;;;;;;;;;;;;;;4947051;28;19983;-91
2022/12/01 05:04:49;;;;;;;;;;;;;;;;;;4950660;28;19953;-92
2022/12/01 05:07:17;;;;;;;;;;;;;;;;;;4957386;28;19922;-92
2022/12/01 05:09:44;;;;;;;;;;;;;;;;;;4995223;28;19945;-91
2022/12/01 05:12:12;;;;;;;;;;;;;;;;;;5006159;28;20596;-91
2022/12/01 05:14:37;;;;;;;;;;;;;;;;;;4985615;28;19929;-90
2022/12/01 05:17:03;;;;;;;;;;;;;;;;;;5010771;28;19920;-91
2022/12/01 05:22:13;;;;;;;;;;;;;;;;;;4998719;28;19953;-89
2022/12/01 05:24:40;;;;;;;;;;;;;;;;;;4987020;28;20056;-93
2022/12/01 05:27:09;;;;;;;;;;;;;;;;;;5004995;28;20719;-91
2022/12/01 05:29:43;;;;;;;;;;;;;;;;;;4977080;28;19917;-89
2022/12/01 06:01:50;;;;;;;;;;;;;;;;;;5023400;23;19948;-64
2022/12/01 06:04:17;;;;;;;;;;;;;;;;;;4974620;28;20227;-64
2022/12/01 06:06:43;;;;;;;;;;;;;;;;;;5029017;28;19916;-64
2022/12/01 06:09:08;;;;;;;;;;;;;;;;;;4978845;28;20295;-64
2022/12/01 06:11:33;;;;;;;;;;;;;;;;;;4978467;28;19924;-64
2022/12/01 06:13:58;;;;;;;;;;;;;;;;;;5058470;28;20346;-64
2022/12/01 06:16:24;;;;;;;;;;;;;;;;;;4961425;28;19921;-64
2022/12/01 06:18:49;;;;;;;;;;;;;;;;;;5056366;28;19920;-64
2022/12/01 06:21:15;;;;;;;;;;;;;;;;;;5060258;28;20007;-65
2022/12/01 06:23:40;;;;;;;;;;;;;;;;;;4973030;28;19916;-63
2022/12/01 06:26:05;;;;;;;;;;;;;;;;;;4980651;28;20007;-65
2022/12/01 06:28:31;;;;;;;;;;;;;;;;;;5062279;28;20153;-64
2022/12/01 06:30:57;;;;;;;;;;;;;;;;;;5061346;28;20294;-64
2022/12/01 06:33:22;;;;;;;;;;;;;;;;;;5060987;28;19920;-65
2022/12/01 06:35:47;;;;;;;;;;;;;;;;;;5062104;28;20454;-65
2022/12/01 06:38:13;;;;;;;;;;;;;;;;;;5055728;28;19920;-64
2022/12/01 06:40:38;;;;;;;;;;;;;;;;;;4972605;28;19920;-64
2022/12/01 06:43:03;;;;;;;;;;;;;;;;;;5058723;28;19913;-65
2022/12/01 06:45:28;;;;;;;;;;;;;;;;;;5060059;28;19926;-65
2022/12/01 06:47:55;;;;;;;;;;;;;;;;;;5050358;28;19916;-65
2022/12/01 06:50:20;;;;;;;;;;;;;;;;;;5050480;28;20379;-65
2022/12/01 06:52:46;;;;;;;;;;;;;;;;;;4953691;28;21232;-65
2022/12/01 06:55:11;;;;;;;;;;;;;;;;;;5031667;28;19926;-65
2022/12/01 06:57:37;;;;;;;;;;;;;;;;;;5054135;28;19999;-64
2022/12/01 07:00:03;;;;;;;;;;;;;;;;;;5049151;28;20094;-65
2022/12/01 07:02:28;;;;;;;;;;;;;;;;;;4966815;28;20403;-65
2022/12/01 07:04:53;;;;;;;;;;;;;;;;;;5054760;28;19924;-65
2022/12/01 07:07:19;;;;;;;;;;;;;;;;;;4969789;28;19920;-64
2022/12/01 07:09:49;;;;;;;;;;;;;;;;;;4969979;28;20485;-65
2022/12/01 07:12:15;;;;;;;;;;;;;;;;;;5052603;28;19924;-64
2022/12/01 07:14:41;;;;;;;;;;;;;;;;;;4957320;28;19952;-64
2022/12/01 07:17:06;;;;;;;;;;;;;;;;;;5058049;28;19920;-64
2022/12/01 07:19:32;;;;;;;;;;;;;;;;;;5054212;28;20321;-64
2022/12/01 07:21:57;;;;;;;;;;;;;;;;;;4973547;28;20441;-64
2022/12/01 07:24:22;;;;;;;;;;;;;;;;;;5055672;28;19923;-64
2022/12/01 07:26:48;;;;;;;;;;;;;;;;;;5057835;28;20568;-64
2022/12/01 07:29:13;;;;;;;;;;;;;;;;;;4975567;28;20439;-64
2022/12/01 07:31:38;;;;;;;;;;;;;;;;;;4988850;28;19924;-64
2022/12/01 07:34:06;;;;;;;;;;;;;;;;;;4957071;28;20807;-64
2022/12/01 07:36:32;;;;;;;;;;;;;;;;;;5053654;28;19960;-64
2022/12/01 07:39:00;;;;;;;;;;;;;;;;;;5056273;28;20255;-64
2022/12/01 07:41:27;;;;;;;;;;;;;;;;;;5059769;28;19930;-64
2022/12/01 07:43:53;;;;;;;;;;;;;;;;;;4991656;28;21469;-64
2022/12/01 07:46:19;;;;;;;;;;;;;;;;;;5060047;28;19920;-64
2022/12/01 07:48:45;;;;;;;;;;;;;;;;;;5061785;28;19916;-64
2022/12/01 07:51:10;;;;;;;;;;;;;;;;;;5059078;28;19924;-64
2022/12/01 07:53:36;;;;;;;;;;;;;;;;;;5064447;28;20275;-64
2022/12/01 07:56:01;;;;;;;;;;;;;;;;;;5046006;28;20337;-64
2022/12/01 07:58:26;;;;;;;;;;;;;;;;;;4988347;28;20042;-63
2022/12/01 08:00:54;;;;;;;;;;;;;;;;;;5060621;28;20268;-63
2022/12/01 08:03:19;;;;;;;;;;;;;;;;;;4980279;28;19999;-63
2022/12/01 08:05:45;;;;;;;;;;;;;;;;;;4978743;28;20398;-63
2022/12/01 08:08:19;;;;;;;;;;;;;;;;;;5064776;28;20030;-63
2022/12/01 08:10:47;;;;;;;;;;;;;;;;;;4977749;28;20477;-65
2022/12/01 08:13:12;;;;;;;;;;;;;;;;;;4962611;28;20002;-64
2022/12/01 08:15:39;;;;;;;;;;;;;;;;;;4965660;28;19916;-64
2022/12/01 08:18:05;;;;;;;;;;;;;;;;;;5057035;28;20002;-63
2022/12/01 08:20:33;;;;;;;;;;;;;;;;;;4973996;28;19924;-64
2022/12/01 08:22:58;;;;;;;;;;;;;;;;;;4961388;28;19993;-63
2022/12/01 08:25:26;;;;;;;;;;;;;;;;;;5063337;28;19925;-64
2022/12/01 08:27:51;;;;;;;;;;;;;;;;;;5062487;28;19968;-63
2022/12/01 08:30:17;;;;;;;;;;;;;;;;;;5060054;28;20543;-64
2022/12/01 08:32:45;;;;;;;;;;;;;;;;;;4975091;28;20303;-63
2022/12/01 08:35:10;;;;;;;;;;;;;;;;;;4976851;28;19920;-64
2022/12/01 08:37:38;;;;;;;;;;;;;;;;;;5059542;28;19974;-64
2022/12/01 08:40:04;;;;;;;;;;;;;;;;;;5060510;28;20493;-64
2022/12/01 08:42:29;;;;;;;;;;;;;;;;;;4978773;28;20489;-64
2022/12/01 08:44:55;;;;;;;;;;;;;;;;;;4975362;28;20056;-64
2022/12/01 08:47:23;;;;;;;;;;;;;;;;;;4978904;28;19920;-64
2022/12/01 08:49:48;;;;;;;;;;;;;;;;;;4993236;28;19924;-64
2022/12/01 08:52:16;;;;;;;;;;;;;;;;;;4976314;28;19934;-64
2022/12/01 08:54:41;;;;;;;;;;;;;;;;;;5059984;28;19919;-64
2022/12/01 08:57:10;;;;;;;;;;;;;;;;;;5060459;28;20548;-64
2022/12/01 08:59:54;;;;;;;;;;;;;;;;;;5001339;28;19957;-64
2022/12/01 09:02:22;;;;;;;;;;;;;;;;;;5001190;28;19932;-64
2022/12/01 09:04:50;;;;;;;;;;;;;;;;;;4989710;28;19924;-65
2022/12/01 09:07:15;;;;;;;;;;;;;;;;;;4980494;28;19962;-63
2022/12/01 09:09:41;;;;;;;;;;;;;;;;;;4981643;28;19925;-63
2022/12/01 09:12:07;;;;;;;;;;;;;;;;;;5001415;28;19925;-63
2022/12/01 09:14:33;;;;;;;;;;;;;;;;;;4981487;28;21669;-64
2022/12/01 09:16:58;;;;;;;;;;;;;;;;;;5000673;28;20000;-65
2022/12/01 09:19:24;;;;;;;;;;;;;;;;;;4918697;28;21847;-64
2022/12/01 09:21:49;;;;;;;;;;;;;;;;;;5003696;28;20183;-64
2022/12/01 09:24:17;;;;;;;;;;;;;;;;;;4986990;28;19917;-65
2022/12/01 09:26:43;;;;;;;;;;;;;;;;;;5000751;28;19921;-63
2022/12/01 09:29:11;;;;;;;;;;;;;;;;;;5001612;28;20553;-63
2022/12/01 09:31:38;;;;;;;;;;;;;;;;;;4981446;28;19928;-64
2022/12/01 09:34:04;;;;;;;;;;;;;;;;;;4977574;28;20673;-64
2022/12/01 09:36:29;;;;;;;;;;;;;;;;;;4976239;28;20413;-64
2022/12/01 09:38:55;;;;;;;;;;;;;;;;;;5057563;28;19928;-65
2022/12/01 09:41:23;;;;;;;;;;;;;;;;;;4974499;28;19964;-64
2022/12/01 09:43:48;;;;;;;;;;;;;;;;;;5059599;28;19916;-64
2022/12/01 09:46:14;;;;;;;;;;;;;;;;;;5056752;28;20508;-64
2022/12/01 09:48:41;;;;;;;;;;;;;;;;;;4978431;28;19920;-64
2022/12/01 09:51:06;;;;;;;;;;;;;;;;;;4975507;28;19924;-64
2022/12/01 09:53:32;;;;;;;;;;;;;;;;;;4960357;28;19935;-63
2022/12/01 09:56:00;;;;;;;;;;;;;;;;;;5058212;28;19920;-64
2022/12/01 09:58:26;;;;;;;;;;;;;;;;;;5057594;28;20013;-63
2022/12/01 10:00:51;;;;;;;;;;;;;;;;;;5060150;28;20603;-64
2022/12/01 10:03:19;;;;;;;;;;;;;;;;;;4973102;28;19924;-64
2022/12/01 10:05:45;;;;;;;;;;;;;;;;;;4973095;28;19924;-64
2022/12/01 10:08:10;;;;;;;;;;;;;;;;;;5059644;28;20368;-63
2022/12/01 10:10:36;;;;;;;;;;;;;;;;;;4971646;28;19924;-63
2022/12/01 10:13:01;;;;;;;;;;;;;;;;;;5055298;28;19928;-63
2022/12/01 10:15:27;;;;;;;;;;;;;;;;;;5060845;28;20284;-63
2022/12/01 10:17:52;;;;;;;;;;;;;;;;;;4974557;28;20512;-64
2022/12/01 10:20:17;;;;;;;;;;;;;;;;;;5059588;28;20067;-63
2022/12/01 10:22:43;;;;;;;;;;;;;;;;;;4975192;28;20002;-63
2022/12/01 10:25:08;;;;;;;;;;;;;;;;;;4975813;28;19920;-64
2022/12/01 10:27:33;;;;;;;;;;;;;;;;;;5056143;28;20406;-64
2022/12/01 10:29:59;;;;;;;;;;;;;;;;;;5057898;28;20303;-63
2022/12/01 10:32:28;;;;;;;;;;;;;;;;;;5059524;28;19920;-64
2022/12/01 10:34:53;;;;;;;;;;;;;;;;;;5055297;28;19927;-64
2022/12/01 10:37:19;;;;;;;;;;;;;;;;;;5062189;28;19948;-63
2022/12/01 10:39:46;;;;;;;;;;;;;;;;;;5057967;28;19928;-65
2022/12/01 10:42:14;;;;;;;;;;;;;;;;;;4990564;28;20294;-63
2022/12/01 10:44:40;;;;;;;;;;;;;;;;;;4973778;28;19949;-63
2022/12/01 10:47:05;;;;;;;;;;;;;;;;;;4959290;28;20287;-63
2022/12/01 10:49:30;;;;;;;;;;;;;;;;;;4961507;28;19931;-63
2022/12/01 10:51:56;;;;;;;;;;;;;;;;;;4972303;28;20007;-64
2022/12/01 10:54:21;;;;;;;;;;;;;;;;;;4958570;28;20003;-63
2022/12/01 10:56:46;;;;;;;;;;;;;;;;;;4957302;28;20147;-64
2022/12/01 10:59:12;;;;;;;;;;;;;;;;;;5058927;28;19916;-64
2022/12/01 11:01:38;;;;;;;;;;;;;;;;;;4975454;28;20425;-63
2022/12/01 11:04:03;;;;;;;;;;;;;;;;;;5040792;28;19935;-63
2022/12/01 11:06:28;;;;;;;;;;;;;;;;;;5058101;28;20430;-63
2022/12/01 11:08:54;;;;;;;;;;;;;;;;;;4976389;28;19920;-65
2022/12/01 11:11:19;;;;;;;;;;;;;;;;;;4959187;28;20084;-64
2022/12/01 11:13:45;;;;;;;;;;;;;;;;;;5058334;28;20387;-63
2022/12/01 11:16:10;;;;;;;;;;;;;;;;;;5058906;28;19920;-63
2022/12/01 11:18:36;;;;;;;;;;;;;;;;;;4979822;28;20616;-64
2022/12/01 11:21:01;;;;;;;;;;;;;;;;;;5062733;28;19923;-64
2022/12/01 11:23:28;;;;;;;;;;;;;;;;;;5058954;28;20009;-64
2022/12/01 11:25:54;;;;;;;;;;;;;;;;;;5059693;28;19923;-63
2022/12/01 11:31:36;;;;;;;;;;;;;;;;;;5063109;28;19981;-63
2022/12/01 11:34:02;;;;;;;;;;;;;;;;;;4975306;28;20458;-64
2022/12/01 11:36:27;;;;;;;;;;;;;;;;;;4961776;28;19920;-63
2022/12/01 11:38:52;;;;;;;;;;;;;;;;;;4976046;28;19996;-63
2022/12/01 11:41:18;;;;;;;;;;;;;;;;;;5060894;28;20512;-64
2022/12/01 11:47:00;;;;;;;;;;;;;;;;;;5064298;28;19962;-63
2022/12/01 11:52:43;;;;;;;;;;;;;;;;;;5059797;28;20500;-65
2022/12/01 11:55:08;;;;;;;;;;;;;;;;;;4989552;28;19920;-62
2022/12/01 11:57:36;;;;;;;;;;;;;;;;;;5063351;28;19924;-63
2022/12/01 12:00:02;;;;;;;;;;;;;;;;;;5058322;28;19916;-63
2022/12/01 12:02:27;;;;;;;;;;;;;;;;;;5061217;28;19935;-63
2022/12/01 12:04:54;;;;;;;;;;;;;;;;;;5060719;28;19924;-63
2022/12/01 12:07:19;;;;;;;;;;;;;;;;;;4978648;28;19927;-64
2022/12/01 12:09:44;;;;;;;;;;;;;;;;;;4959899;28;19916;-63
2022/12/01 12:12:10;;;;;;;;;;;;;;;;;;5063021;28;20777;-64
2022/12/01 12:14:35;;;;;;;;;;;;;;;;;;4979099;28;20343;-64
2022/12/01 12:17:00;;;;;;;;;;;;;;;;;;4975260;28;20369;-63
2022/12/01 12:19:27;;;;;;;;;;;;;;;;;;4977515;28;19978;-64
2022/12/01 12:21:52;;;;;;;;;;;;;;;;;;4975577;28;20438;-64
2022/12/01 12:24:17;;;;;;;;;;;;;;;;;;5046670;28;19998;-63
2022/12/01 12:26:42;;;;;;;;;;;;;;;;;;4958427;28;20035;-63
2022/12/01 12:29:08;;;;;;;;;;;;;;;;;;4963536;28;19943;-63
2022/12/01 12:31:34;;;;;;;;;;;;;;;;;;5058606;28;19924;-63
2022/12/01 12:33:59;;;;;;;;;;;;;;;;;;5060269;28;20077;-64
2022/12/01 12:36:30;;;;;;;;;;;;;;;;;;4976671;28;20302;-63
2022/12/01 12:38:55;;;;;;;;;;;;;;;;;;4979692;28;19942;-63
2022/12/01 12:41:21;;;;;;;;;;;;;;;;;;5059924;28;19916;-64
2022/12/01 12:43:49;;;;;;;;;;;;;;;;;;4977320;28;19927;-63
2022/12/01 12:46:15;;;;;;;;;;;;;;;;;;5061955;28;19916;-63
2022/12/01 12:48:40;;;;;;;;;;;;;;;;;;4978568;28;20543;-62
2022/12/01 12:51:07;;;;;;;;;;;;;;;;;;4970045;28;19928;-63
2022/12/01 12:53:35;;;;;;;;;;;;;;;;;;5056444;28;20655;-63
2022/12/01 12:56:00;;;;;;;;;;;;;;;;;;4972075;28;19985;-65
2022/12/01 12:58:26;;;;;;;;;;;;;;;;;;5055164;28;19928;-63
2022/12/01 13:00:51;;;;;;;;;;;;;;;;;;5054268;28;21495;-63
2022/12/01 13:03:17;;;;;;;;;;;;;;;;;;5054436;28;20072;-63
2022/12/01 13:05:42;;;;;;;;;;;;;;;;;;5055829;28;20348;-64
2022/12/01 13:08:08;;;;;;;;;;;;;;;;;;4975992;28;19963;-63
2022/12/01 13:10:33;;;;;;;;;;;;;;;;;;4952039;28;19935;-64
2022/12/01 13:12:59;;;;;;;;;;;;;;;;;;4975377;28;19924;-64
2022/12/01 13:15:24;;;;;;;;;;;;;;;;;;4971341;28;19920;-63
2022/12/01 13:17:49;;;;;;;;;;;;;;;;;;4981676;28;19994;-63
2022/12/01 13:20:16;;;;;;;;;;;;;;;;;;5052083;28;19960;-63
2022/12/01 13:22:41;;;;;;;;;;;;;;;;;;4969363;28;19939;-64
2022/12/01 13:28:26;;;;;;;;;;;;;;;;;;5048960;28;19927;-64
2022/12/01 13:30:51;;;;;;;;;;;;;;;;;;4984583;28;19920;-65
2022/12/01 13:33:19;;;;;;;;;;;;;;;;;;5034384;28;20349;-64
2022/12/01 13:35:46;;;;;;;;;;;;;;;;;;4974849;28;19969;-64
2022/12/01 13:38:12;;;;;;;;;;;;;;;;;;4970559;28;19924;-63
2022/12/01 13:40:37;;;;;;;;;;;;;;;;;;5055164;28;20712;-63
2022/12/01 13:43:02;;;;;;;;;;;;;;;;;;4972054;28;19920;-64
2022/12/01 13:45:28;;;;;;;;;;;;;;;;;;4964987;28;19924;-63
2022/12/01 13:47:54;;;;;;;;;;;;;;;;;;4970030;28;19924;-63
2022/12/01 13:50:19;;;;;;;;;;;;;;;;;;5052817;28;20402;-63
2022/12/01 13:52:45;;;;;;;;;;;;;;;;;;5053673;28;19985;-63
2022/12/01 13:55:10;;;;;;;;;;;;;;;;;;4972467;28;19970;-65
2022/12/01 13:57:36;;;;;;;;;;;;;;;;;;4978813;28;19942;-64
2022/12/01 14:00:02;;;;;;;;;;;;;;;;;;5057018;28;19920;-65
2022/12/01 14:02:27;;;;;;;;;;;;;;;;;;4958769;28;19930;-64
2022/12/01 14:04:53;;;;;;;;;;;;;;;;;;4978473;28;19992;-64
2022/12/01 14:07:18;;;;;;;;;;;;;;;;;;4977471;28;19955;-63
2022/12/01 14:09:43;;;;;;;;;;;;;;;;;;4956128;28;19931;-64
2022/12/01 14:12:09;;;;;;;;;;;;;;;;;;4954864;28;20589;-63
2022/12/01 14:14:37;;;;;;;;;;;;;;;;;;5056200;28;19920;-64
2022/12/01 14:17:04;;;;;;;;;;;;;;;;;;4991350;28;20043;-63
2022/12/01 14:19:30;;;;;;;;;;;;;;;;;;5034269;28;19931;-63
2022/12/01 14:21:56;;;;;;;;;;;;;;;;;;5054608;28;19916;-64
2022/12/01 14:24:22;;;;;;;;;;;;;;;;;;5052136;28;19921;-64
2022/12/01 14:26:48;;;;;;;;;;;;;;;;;;4971151;28;19981;-64
2022/12/01 14:29:13;;;;;;;;;;;;;;;;;;5058490;28;19999;-63
2022/12/01 14:31:43;;;;;;;;;;;;;;;;;;4969125;28;19930;-64
2022/12/01 14:34:08;;;;;;;;;;;;;;;;;;5055718;28;20039;-65
2022/12/01 14:36:34;;;;;;;;;;;;;;;;;;5055523;28;20210;-64
2022/12/01 14:39:00;;;;;;;;;;;;;;;;;;5052036;28;20538;-64
2022/12/01 14:41:25;;;;;;;;;;;;;;;;;;4972912;28;19920;-64
2022/12/01 14:44:03;;;;;;;;;;;;;;;;;;4989487;28;19916;-63
2022/12/01 14:46:32;;;;;;;;;;;;;;;;;;5060478;28;20350;-64
2022/12/01 14:48:57;;;;;;;;;;;;;;;;;;4972945;28;20047;-65
2022/12/01 14:51:22;;;;;;;;;;;;;;;;;;4960058;28;20675;-64
2022/12/01 14:53:48;;;;;;;;;;;;;;;;;;4975647;28;19920;-64
2022/12/01 14:56:14;;;;;;;;;;;;;;;;;;5060689;28;19955;-64
2022/12/01 14:58:39;;;;;;;;;;;;;;;;;;5042338;28;19924;-64
2022/12/01 15:01:05;;;;;;;;;;;;;;;;;;4976918;28;19920;-64
2022/12/01 15:03:30;;;;;;;;;;;;;;;;;;4976637;28;20153;-64
2022/12/01 15:05:55;;;;;;;;;;;;;;;;;;5058486;28;19921;-64
2022/12/01 15:08:21;;;;;;;;;;;;;;;;;;4974015;28;19928;-64
2022/12/01 15:10:49;;;;;;;;;;;;;;;;;;5056044;28;19916;-63
2022/12/01 15:13:14;;;;;;;;;;;;;;;;;;4958784;28;20010;-64
2022/12/01 15:15:42;;;;;;;;;;;;;;;;;;5064575;28;20001;-64
2022/12/01 15:18:07;;;;;;;;;;;;;;;;;;5062287;28;19924;-64
2022/12/01 15:20:33;;;;;;;;;;;;;;;;;;4975163;28;19925;-64
2022/12/01 15:22:58;;;;;;;;;;;;;;;;;;5046072;28;19927;-63
2022/12/01 15:25:24;;;;;;;;;;;;;;;;;;4976330;28;19923;-63
2022/12/01 15:27:49;;;;;;;;;;;;;;;;;;4980522;28;19919;-64
2022/12/01 15:30:14;;;;;;;;;;;;;;;;;;4966810;28;19955;-63
2022/12/01 15:32:44;;;;;;;;;;;;;;;;;;5065663;28;20108;-64
2022/12/01 15:35:09;;;;;;;;;;;;;;;;;;4984462;28;20003;-64
2022/12/01 15:37:37;;;;;;;;;;;;;;;;;;4966105;28;20554;-63
2022/12/01 15:40:03;;;;;;;;;;;;;;;;;;4979799;28;19932;-64
2022/12/01 15:42:29;;;;;;;;;;;;;;;;;;5062816;28;19916;-64
2022/12/01 15:44:54;;;;;;;;;;;;;;;;;;5003293;28;19943;-64
2022/12/01 15:47:22;;;;;;;;;;;;;;;;;;4982812;28;19955;-64
2022/12/01 15:49:49;;;;;;;;;;;;;;;;;;4977930;28;19916;-64
2022/12/01 15:52:17;;;;;;;;;;;;;;;;;;4962862;28;20576;-64
2022/12/01 15:57:59;;;;;;;;;;;;;;;;;;5062515;28;20023;-64
2022/12/01 16:00:25;;;;;;;;;;;;;;;;;;5065641;28;19916;-64
2022/12/01 16:02:50;;;;;;;;;;;;;;;;;;4966334;28;19943;-64
2022/12/01 16:05:18;;;;;;;;;;;;;;;;;;5065376;28;20035;-63
2022/12/01 16:07:44;;;;;;;;;;;;;;;;;;5061867;28;19958;-63
2022/12/01 16:13:06;;;;;;;;;;;;;;;;;;4975980;28;20165;-65
2022/12/01 16:15:32;;;;;;;;;;;;;;;;;;5061106;28;19916;-63
2022/12/01 16:17:58;;;;;;;;;;;;;;;;;;5066123;28;19927;-64
2022/12/01 16:20:23;;;;;;;;;;;;;;;;;;4980818;28;19916;-64
2022/12/01 16:22:51;;;;;;;;;;;;;;;;;;5062990;28;19920;-63
2022/12/01 16:25:16;;;;;;;;;;;;;;;;;;5059473;28;20273;-64
2022/12/01 16:27:44;;;;;;;;;;;;;;;;;;5059723;28;19959;-63
2022/12/01 16:30:09;;;;;;;;;;;;;;;;;;4981296;28;20038;-65
2022/12/01 16:32:35;;;;;;;;;;;;;;;;;;5066441;28;19927;-65
2022/12/01 16:35:00;;;;;;;;;;;;;;;;;;5066018;28;20751;-65
2022/12/01 16:37:28;;;;;;;;;;;;;;;;;;5063858;28;19920;-65
2022/12/01 16:39:53;;;;;;;;;;;;;;;;;;4978723;28;19948;-65
2022/12/01 16:42:21;;;;;;;;;;;;;;;;;;4981477;28;19939;-65
2022/12/01 16:45:06;;;;;;;;;;;;;;;;;;5002167;28;19963;-63
2022/12/01 16:47:32;;;;;;;;;;;;;;;;;;5002507;28;19921;-63
2022/12/01 16:49:57;;;;;;;;;;;;;;;;;;5000654;28;20360;-64
2022/12/01 16:52:22;;;;;;;;;;;;;;;;;;4986580;28;19921;-65
2022/12/01 16:54:48;;;;;;;;;;;;;;;;;;5002216;28;19928;-63
2022/12/01 16:57:16;;;;;;;;;;;;;;;;;;4985970;28;19926;-63
2022/12/01 16:59:43;;;;;;;;;;;;;;;;;;4988115;28;20019;-64
2022/12/01 17:02:09;;;;;;;;;;;;;;;;;;5001084;28;19932;-64
2022/12/01 17:04:35;;;;;;;;;;;;;;;;;;5001933;28;19926;-63
2022/12/01 17:07:02;;;;;;;;;;;;;;;;;;4998966;28;19960;-64
2022/12/01 17:09:31;;;;;;;;;;;;;;;;;;4984407;28;19921;-64
2022/12/01 17:11:56;;;;;;;;;;;;;;;;;;5002608;28;19921;-63
2022/12/01 17:14:21;;;;;;;;;;;;;;;;;;4986463;28;19921;-63
2022/12/01 17:16:49;;;;;;;;;;;;;;;;;;5048000;28;20442;-63
2022/12/01 17:19:17;;;;;;;;;;;;;;;;;;5056201;28;19916;-64
2022/12/01 17:21:43;;;;;;;;;;;;;;;;;;5051844;28;19916;-64
2022/12/01 17:24:09;;;;;;;;;;;;;;;;;;4977090;28;19920;-64
2022/12/01 17:26:34;;;;;;;;;;;;;;;;;;4978213;28;20183;-64
2022/12/01 17:29:00;;;;;;;;;;;;;;;;;;4979147;28;20497;-63
2022/12/01 17:31:25;;;;;;;;;;;;;;;;;;4976987;28;19935;-63
2022/12/01 17:33:50;;;;;;;;;;;;;;;;;;4975201;28;19925;-63
2022/12/01 17:36:16;;;;;;;;;;;;;;;;;;4979146;28;19912;-63
2022/12/01 17:38:41;;;;;;;;;;;;;;;;;;4993259;28;19920;-63
2022/12/01 17:41:07;;;;;;;;;;;;;;;;;;5059749;28;19916;-63